Time;durP1;ratioP1;P1;durP2;ratioP2;P2;SDS_P1;SDS_P2;PMS_P1;PMS_P2;Temp;Humidity;BMP_temperature;BMP_pressure;BME280_temperature;BME280_humidity;BME280_pressure;Samples;Min_cycle;Max_cycle;Signal;HPM_P1;HPM_P2
2021/12/19 00:01:12;;;;;;;11.95;6.78;;;;;;;4.98;100.00;101898.75;5040309;28;20024;-83
2021/12/19 00:09:00;;;;;;;11.32;6.07;;;;;;;4.90;100.00;101899.50;5038031;28;20052;-81
2021/12/19 00:11:26;;;;;;;10.93;6.13;;;;;;;4.90;100.00;101898.59;5039444;28;20530;-81
2021/12/19 00:13:53;;;;;;;11.52;6.00;;;;;;;4.87;100.00;101901.22;5040995;28;20524;-81
2021/12/19 00:16:19;;;;;;;8.10;5.07;;;;;;;4.84;100.00;101895.84;5039951;28;20075;-81
2021/12/19 00:18:46;;;;;;;9.40;5.07;;;;;;;4.85;100.00;101897.63;5041789;28;20055;-82
2021/12/19 00:21:14;;;;;;;9.23;4.70;;;;;;;4.78;100.00;101891.31;5039933;28;20072;-81
2021/12/19 00:23:40;;;;;;;9.10;4.63;;;;;;;4.74;100.00;101884.19;5040876;28;20441;-81
2021/12/19 00:26:06;;;;;;;7.90;4.07;;;;;;;4.72;100.00;101881.50;5042212;28;20478;-82
2021/12/19 00:28:32;;;;;;;8.50;3.92;;;;;;;4.71;100.00;101882.38;5039969;28;20033;-81
2021/12/19 00:30:57;;;;;;;9.45;4.28;;;;;;;4.70;100.00;101885.88;5040326;28;20026;-81
2021/12/19 00:33:23;;;;;;;9.25;4.30;;;;;;;4.67;100.00;101883.16;5039665;28;20446;-81
2021/12/19 00:35:48;;;;;;;10.52;4.60;;;;;;;4.68;100.00;101871.72;5039233;28;20051;-81
2021/12/19 00:38:13;;;;;;;9.10;4.47;;;;;;;4.67;100.00;101873.47;5039815;28;20034;-81
2021/12/19 00:40:39;;;;;;;7.70;4.53;;;;;;;4.66;100.00;101876.09;5041536;28;20106;-81
2021/12/19 00:43:09;;;;;;;7.63;4.22;;;;;;;4.66;100.00;101877.00;5038835;28;20030;-82
2021/12/19 00:45:36;;;;;;;9.02;4.15;;;;;;;4.71;100.00;101869.16;5042431;28;20029;-82
2021/12/19 00:48:05;;;;;;;8.65;4.45;;;;;;;4.68;100.00;101874.38;5045502;28;20021;-79
2021/12/19 00:50:31;;;;;;;10.00;4.70;;;;;;;4.71;100.00;101869.16;5044241;28;20026;-82
2021/12/19 00:52:57;;;;;;;8.07;3.88;;;;;;;4.63;100.00;101860.16;5044572;28;20027;-82
2021/12/19 00:55:25;;;;;;;8.45;4.65;;;;;;;4.63;100.00;101863.69;5045140;28;20044;-81
2021/12/19 00:57:51;;;;;;;7.95;4.50;;;;;;;4.63;100.00;101860.16;5043361;28;20035;-82
2021/12/19 01:00:20;;;;;;;8.10;4.00;;;;;;;4.72;100.00;101857.69;5041562;28;20040;-81
2021/12/19 01:02:46;;;;;;;8.73;4.45;;;;;;;4.63;100.00;101860.16;5042135;28;20072;-82
2021/12/19 01:05:12;;;;;;;7.45;3.75;;;;;;;4.71;100.00;101853.28;5042500;28;20096;-81
2021/12/19 01:07:38;;;;;;;11.07;4.97;;;;;;;4.56;100.00;101849.44;5040296;28;20041;-82
2021/12/19 01:10:07;;;;;;;8.65;4.60;;;;;;;4.61;100.00;101853.94;5040391;28;20023;-82
2021/12/19 01:12:36;;;;;;;10.00;4.43;;;;;;;4.56;100.00;101843.28;5042017;28;20022;-82
2021/12/19 01:15:04;;;;;;;8.52;3.75;;;;;;;4.56;100.00;101843.28;5042042;28;20067;-81
2021/12/19 01:17:29;;;;;;;9.25;4.13;;;;;;;4.52;100.00;101844.94;5039948;28;20422;-81
2021/12/19 01:19:54;;;;;;;10.07;4.47;;;;;;;4.48;100.00;101843.13;5038333;28;20029;-82
2021/12/19 01:22:19;;;;;;;10.85;4.68;;;;;;;4.56;100.00;101844.16;5036706;28;20029;-81
2021/12/19 01:24:45;;;;;;;8.23;4.22;;;;;;;4.60;100.00;101842.47;5037701;28;20025;-81
2021/12/19 01:27:10;;;;;;;8.95;4.22;;;;;;;4.53;100.00;101838.81;5039193;28;20501;-81
2021/12/19 01:29:35;;;;;;;9.13;4.03;;;;;;;4.62;100.00;101826.59;5040358;28;20064;-81
2021/12/19 01:32:01;;;;;;;7.50;3.78;;;;;;;4.47;100.00;101828.09;5041700;28;20029;-81
2021/12/19 01:34:27;;;;;;;8.82;4.05;;;;;;;4.45;100.00;101824.53;5040668;28;20470;-82
2021/12/19 01:36:52;;;;;;;9.25;4.47;;;;;;;4.49;100.00;101825.47;5040080;28;20025;-81
2021/12/19 01:39:18;;;;;;;8.82;4.60;;;;;;;4.45;100.00;101816.59;5040554;28;20022;-81
2021/12/19 01:41:47;;;;;;;9.10;4.38;;;;;;;4.46;100.00;101808.69;5042112;28;20017;-80
2021/12/19 01:44:12;;;;;;;10.70;4.90;;;;;;;4.50;100.00;101816.69;5042290;28;20033;-81
2021/12/19 01:46:38;;;;;;;8.10;4.32;;;;;;;4.47;100.00;101817.50;5041077;28;20017;-81
2021/12/19 01:49:03;;;;;;;9.52;4.30;;;;;;;4.47;100.00;101815.78;5040494;28;20029;-82
2021/12/19 01:51:28;;;;;;;10.52;4.65;;;;;;;4.50;100.00;101807.00;5040466;28;20393;-81
2021/12/19 01:53:54;;;;;;;11.52;5.15;;;;;;;4.53;100.00;101800.88;5040962;28;20017;-81
2021/12/19 01:56:19;;;;;;;9.32;4.68;;;;;;;4.53;100.00;101796.50;5037057;28;20052;-82
2021/12/19 01:58:46;;;;;;;11.73;4.72;;;;;;;4.46;100.00;101792.81;5035288;28;20398;-81
2021/12/19 02:01:12;;;;;;;10.77;4.93;;;;;;;4.45;100.00;101785.75;5037527;28;20029;-81
2021/12/19 02:03:37;;;;;;;12.07;5.85;;;;;;;4.46;100.00;101786.63;5040306;28;20068;-81
2021/12/19 02:06:04;;;;;;;12.23;5.20;;;;;;;4.45;100.00;101782.22;5040193;28;20025;-81
2021/12/19 02:08:29;;;;;;;13.25;6.20;;;;;;;4.41;100.00;101788.28;5040998;28;20025;-82
2021/12/19 02:10:55;;;;;;;13.63;6.38;;;;;;;4.48;100.00;101792.84;5042413;28;20026;-82
2021/12/19 02:13:20;;;;;;;14.35;6.28;;;;;;;4.43;100.00;101783.94;5040807;28;20021;-82
2021/12/19 02:15:46;;;;;;;14.20;6.60;;;;;;;4.39;100.00;101782.06;5042650;28;20037;-82
2021/12/19 02:18:18;;;;;;;14.43;6.57;;;;;;;4.49;100.00;101772.56;5040901;28;20022;-81
2021/12/19 02:20:50;;;;;;;14.63;6.60;;;;;;;4.46;100.00;101776.03;5042934;28;20475;-81
2021/12/19 02:23:17;;;;;;;14.40;6.75;;;;;;;4.48;100.00;101771.69;5042770;28;20093;-81
2021/12/19 02:25:43;;;;;;;15.93;7.15;;;;;;;4.36;100.00;101767.94;5041263;28;20056;-81
2021/12/19 02:28:09;;;;;;;14.45;6.75;;;;;;;4.50;100.00;101764.69;5040839;28;20029;-81
2021/12/19 02:30:34;;;;;;;15.48;6.68;;;;;;;4.43;100.00;101763.63;5042445;28;20119;-82
2021/12/19 02:33:00;;;;;;;17.95;6.85;;;;;;;4.42;100.00;101761.88;5038224;28;20084;-81
2021/12/19 02:35:30;;;;;;;18.48;7.38;;;;;;;4.45;100.00;101763.69;5036385;28;20111;-81
2021/12/19 02:38:27;;;;;;;15.25;6.82;;;;;;;4.40;100.00;101758.31;5037645;28;20025;-80
2021/12/19 02:48:56;;;;;;;16.43;6.73;;;;;;;4.46;100.00;101737.25;5044520;28;19916;-83
2021/12/19 02:51:22;;;;;;;16.83;7.50;;;;;;;4.44;100.00;101738.09;5046465;28;20032;-83
2021/12/19 02:53:47;;;;;;;15.23;6.47;;;;;;;4.44;100.00;101740.72;5046145;28;20037;-82
2021/12/19 02:56:13;;;;;;;15.57;6.72;;;;;;;4.44;100.00;101740.72;5045209;28;20048;-82
2021/12/19 02:58:41;;;;;;;14.77;6.47;;;;;;;4.42;100.00;101729.25;5047414;28;20425;-82
2021/12/19 03:01:10;;;;;;;16.40;7.25;;;;;;;4.39;100.00;101742.41;5048299;28;20036;-82
2021/12/19 03:03:35;;;;;;;13.65;6.60;;;;;;;4.45;100.00;101729.31;5048899;28;20025;-82
2021/12/19 03:06:01;;;;;;;15.15;6.68;;;;;;;4.43;100.00;101725.75;5047629;28;20025;-82
2021/12/19 03:08:26;;;;;;;15.65;7.15;;;;;;;4.55;100.00;101723.31;5045100;28;20029;-82
2021/12/19 03:11:23;;;;;;;15.35;6.47;;;;;;;4.42;100.00;101719.56;5037911;28;20025;-82
2021/12/19 03:17:57;;;;;;;14.15;7.25;;;;;;;4.50;100.00;101725.00;5041331;28;20022;-81
2021/12/19 03:19:26;;;;;;;15.35;6.80;;;;;;;4.55;100.00;101715.38;4983475;28;20484;-82
2021/12/19 03:21:51;;;;;;;15.25;6.78;;;;;;;4.59;100.00;101708.38;5034440;28;20030;-82
2021/12/19 03:24:16;;;;;;;15.02;6.53;;;;;;;4.52;100.00;101715.31;5044786;28;20025;-82
2021/12/19 03:26:42;;;;;;;14.68;6.70;;;;;;;4.55;100.00;101709.19;5046562;28;20029;-82
2021/12/19 03:29:07;;;;;;;14.05;6.15;;;;;;;4.55;100.00;101709.19;5046813;28;20068;-82
2021/12/19 03:31:32;;;;;;;16.20;7.32;;;;;;;4.54;100.00;101700.38;5046880;28;20026;-81
2021/12/19 03:33:59;;;;;;;14.70;6.95;;;;;;;4.58;100.00;101699.56;5046367;28;20025;-85
2021/12/19 03:36:24;;;;;;;16.58;7.00;;;;;;;4.55;100.00;101704.81;5045119;28;20075;-82
2021/12/19 03:38:57;;;;;;;13.38;6.53;;;;;;;4.55;100.00;101699.50;5044722;28;20017;-83
2021/12/19 03:41:24;;;;;;;14.43;6.25;;;;;;;4.54;100.00;101695.06;5045249;28;20021;-82
2021/12/19 03:43:49;;;;;;;12.20;6.28;;;;;;;4.63;100.00;101683.78;5043627;28;20025;-82
2021/12/19 03:46:17;;;;;;;13.40;6.45;;;;;;;4.58;100.00;101681.06;5038887;28;20021;-81
2021/12/19 03:48:43;;;;;;;15.02;6.93;;;;;;;4.60;100.00;101674.88;5038233;28;20109;-81
2021/12/19 03:51:09;;;;;;;12.65;6.38;;;;;;;4.57;100.00;101681.91;5040939;28;20106;-80
2021/12/19 03:53:34;;;;;;;12.95;6.38;;;;;;;4.60;100.00;101685.47;5042766;28;20116;-81
2021/12/19 03:56:00;;;;;;;12.30;6.10;;;;;;;4.58;100.00;101678.41;5043108;28;20021;-82
2021/12/19 03:58:25;;;;;;;12.15;6.30;;;;;;;4.66;100.00;101675.00;5043729;28;20068;-81
2021/12/19 04:00:53;;;;;;;12.13;6.00;;;;;;;4.58;100.00;101670.47;5045253;28;20018;-82
2021/12/19 04:03:21;;;;;;;13.00;6.10;;;;;;;4.61;100.00;101667.00;5046834;28;20105;-81
2021/12/19 04:05:48;;;;;;;11.57;6.03;;;;;;;4.63;100.00;101669.66;5046289;28;20033;-82
2021/12/19 04:08:14;;;;;;;11.15;5.75;;;;;;;4.64;100.00;101679.38;5046344;28;20049;-80
2021/12/19 04:10:40;;;;;;;16.88;6.60;;;;;;;4.64;100.00;101664.38;5046047;28;20081;-80
2021/12/19 04:13:07;;;;;;;11.13;5.97;;;;;;;4.61;100.00;101660.81;5045580;28;20518;-81
2021/12/19 04:15:32;;;;;;;11.13;5.88;;;;;;;4.67;100.00;101645.91;5046228;28;20022;-82
2021/12/19 04:18:01;;;;;;;12.50;6.15;;;;;;;4.66;100.00;101659.13;5046602;28;20032;-83
2021/12/19 04:20:26;;;;;;;10.05;5.57;;;;;;;4.62;100.00;101657.28;5046287;28;20028;-81
2021/12/19 04:22:53;;;;;;;13.32;6.15;;;;;;;4.65;100.00;101658.22;5036450;28;20026;-81
2021/12/19 04:25:19;;;;;;;11.23;5.95;;;;;;;4.74;100.00;101649.53;5039260;28;20108;-83
2021/12/19 04:27:45;;;;;;;13.00;6.30;;;;;;;4.66;100.00;101648.53;5041314;28;20033;-81
2021/12/19 04:30:23;;;;;;;15.82;6.18;;;;;;;4.64;100.00;101650.28;5041408;28;20033;-83
2021/12/19 04:32:59;;;;;;;12.27;6.05;;;;;;;4.75;100.00;101653.97;5041687;28;20018;-82
2021/12/19 04:35:31;;;;;;;12.32;6.10;;;;;;;4.71;100.00;101646.88;5028587;28;20049;-83
2021/12/19 04:41:03;;;;;;;11.55;5.70;;;;;;;4.77;100.00;101636.34;5046440;28;20113;-81
2021/12/19 04:52:39;;;;;;;18.50;7.07;;;;;;;4.75;100.00;101635.44;5045896;28;20036;-82
2021/12/19 04:54:48;;;;;;;15.25;7.63;;;;;;;4.75;100.00;101638.09;5037549;28;20044;-83
2021/12/19 04:57:31;;;;;;;16.05;7.00;;;;;;;4.72;100.00;101632.75;5046443;28;20034;-83
2021/12/19 05:00:11;;;;;;;15.02;7.03;;;;;;;4.70;100.00;101629.19;5036839;28;20029;-82
2021/12/19 05:02:51;;;;;;;16.98;7.10;;;;;;;4.75;100.00;101632.81;5044732;28;20059;-82
2021/12/19 05:16:12;;;;;;;11.40;5.28;;;;;;;4.76;100.00;101624.00;5047348;28;19936;-83
2021/12/19 05:18:40;;;;;;;14.43;6.70;;;;;;;4.77;100.00;101624.88;5048164;28;20543;-83
2021/12/19 05:21:15;;;;;;;12.88;5.60;;;;;;;4.72;100.00;101622.16;5046278;28;20029;-83
2021/12/19 05:26:14;;;;;;;15.63;6.95;;;;;;;4.68;100.00;101615.94;5047546;28;20056;-82
2021/12/19 05:28:40;;;;;;;16.48;8.25;;;;;;;4.69;100.00;101611.56;5045217;28;20026;-82
2021/12/19 05:31:05;;;;;;;17.92;8.10;;;;;;;4.70;100.00;101618.59;5044585;28;20024;-83
2021/12/19 05:33:30;;;;;;;17.33;8.18;;;;;;;4.67;100.00;101610.63;5045073;28;20029;-82
2021/12/19 05:46:33;;;;;;;13.45;6.35;;;;;;;4.87;100.00;101588.88;5042886;28;20076;-82
2021/12/19 05:48:58;;;;;;;13.02;6.20;;;;;;;4.79;100.00;101586.97;5040144;28;20029;-83
2021/12/19 05:51:24;;;;;;;14.32;5.65;;;;;;;4.77;100.00;101593.13;5043949;28;20469;-82
2021/12/19 05:53:49;;;;;;;12.25;5.90;;;;;;;4.85;100.00;101602.06;5043733;28;20088;-83
2021/12/19 05:56:14;;;;;;;12.23;6.15;;;;;;;4.78;100.00;101600.22;5045234;28;20029;-83
2021/12/19 05:58:40;;;;;;;13.00;5.75;;;;;;;4.83;100.00;101592.34;5052948;23;20502;-74
2021/12/19 06:01:06;;;;;;;14.63;5.72;;;;;;;4.89;100.00;101589.78;5033091;28;20022;-74
2021/12/19 06:03:31;;;;;;;13.13;5.80;;;;;;;4.80;100.00;101583.47;5033444;28;20139;-74
2021/12/19 06:05:56;;;;;;;10.60;5.22;;;;;;;4.81;100.00;101584.38;5036851;28;20025;-74
2021/12/19 06:08:22;;;;;;;12.50;6.38;;;;;;;4.92;100.00;101581.91;5033578;28;20441;-75
2021/12/19 06:10:47;;;;;;;16.98;7.72;;;;;;;4.82;100.00;101585.28;5033792;28;20029;-74
2021/12/19 06:13:12;;;;;;;15.55;7.32;;;;;;;4.79;100.00;101581.69;5033718;28;20036;-74
2021/12/19 06:15:38;;;;;;;16.67;7.35;;;;;;;4.79;100.00;101578.19;5033099;28;20095;-74
2021/12/19 06:18:04;;;;;;;12.05;6.38;;;;;;;4.77;100.00;101577.25;5032145;28;20026;-74
2021/12/19 06:20:31;;;;;;;13.98;6.60;;;;;;;4.72;100.00;101569.25;5032890;28;20068;-75
2021/12/19 06:22:57;;;;;;;14.23;6.55;;;;;;;4.73;100.00;101581.63;5032914;28;20051;-74
2021/12/19 06:25:22;;;;;;;15.70;7.30;;;;;;;4.73;100.00;101576.31;5033307;28;20065;-75
2021/12/19 06:27:47;;;;;;;20.20;7.50;;;;;;;4.73;100.00;101578.97;5032880;28;20394;-74
2021/12/19 06:30:13;;;;;;;10.35;5.95;;;;;;;4.72;100.00;101577.19;5033033;28;20494;-74
2021/12/19 06:32:39;;;;;;;12.32;5.53;;;;;;;4.67;100.00;101586.81;5031815;28;20017;-75
2021/12/19 06:35:10;;;;;;;12.40;5.03;;;;;;;4.64;100.00;101578.84;5036570;28;20048;-75
2021/12/19 06:37:38;;;;;;;13.43;5.18;;;;;;;4.67;100.00;101576.22;5036984;28;20025;-75
2021/12/19 06:40:06;;;;;;;10.00;5.10;;;;;;;4.65;100.00;101568.28;5037221;28;20037;-75
2021/12/19 06:42:31;;;;;;;8.55;3.92;;;;;;;4.60;100.00;101569.06;5036608;28;20483;-75
2021/12/19 06:44:57;;;;;;;10.27;3.97;;;;;;;4.56;100.00;101579.59;5037733;28;20029;-75
2021/12/19 06:47:22;;;;;;;8.98;3.78;;;;;;;4.57;100.00;101586.66;5036776;28;20032;-75
2021/12/19 06:49:47;;;;;;;7.65;3.67;;;;;;;4.54;100.00;101581.31;5036465;28;20513;-75
2021/12/19 06:52:13;;;;;;;6.88;3.10;;;;;;;4.56;100.00;101582.22;5036869;28;20057;-75
2021/12/19 06:54:38;;;;;;;7.57;3.47;;;;;;;4.53;100.00;101587.50;5036229;28;20501;-75
2021/12/19 06:57:03;;;;;;;6.03;2.78;;;;;;;4.53;100.00;101576.91;5036279;28;20032;-75
2021/12/19 06:59:29;;;;;;;6.13;2.58;;;;;;;4.51;100.00;101575.97;5034675;28;20026;-75
2021/12/19 07:01:54;;;;;;;5.13;2.63;;;;;;;4.49;100.00;101576.81;5034891;28;20022;-75
2021/12/19 07:04:19;;;;;;;6.32;2.92;;;;;;;4.45;100.00;101571.50;5034855;28;20026;-75
2021/12/19 07:06:45;;;;;;;4.85;2.58;;;;;;;4.50;100.00;101571.56;5035957;28;20028;-75
2021/12/19 07:09:10;;;;;;;7.03;2.80;;;;;;;4.51;100.00;101569.81;5035974;28;20029;-75
2021/12/19 07:11:35;;;;;;;6.43;3.03;;;;;;;4.47;100.00;101566.22;5036182;28;20040;-74
2021/12/19 07:14:01;;;;;;;7.32;3.47;;;;;;;4.47;100.00;101568.88;5035914;28;20123;-75
2021/12/19 07:16:26;;;;;;;8.98;3.60;;;;;;;4.42;100.00;101555.56;5034657;28;20021;-75
2021/12/19 07:18:51;;;;;;;7.05;2.92;;;;;;;4.37;100.00;101554.59;5036671;28;20474;-75
2021/12/19 07:21:17;;;;;;;5.80;2.78;;;;;;;4.33;100.00;101556.28;5036496;28;20028;-75
2021/12/19 07:23:42;;;;;;;4.32;2.20;;;;;;;4.34;100.00;101563.38;5036015;28;20032;-75
2021/12/19 07:26:08;;;;;;;6.97;2.58;;;;;;;4.32;100.00;101559.81;5035795;28;20052;-75
2021/12/19 07:28:33;;;;;;;5.40;2.28;;;;;;;4.26;100.00;101551.78;5036141;28;20488;-75
2021/12/19 07:30:59;;;;;;;4.22;1.80;;;;;;;4.33;100.00;101551.00;5035516;28;20025;-75
2021/12/19 07:33:24;;;;;;;4.00;1.73;;;;;;;4.25;100.00;101553.53;5035570;28;20017;-75
2021/12/19 07:35:50;;;;;;;3.50;1.60;;;;;;;4.23;100.00;101554.34;5035484;28;20504;-75
2021/12/19 07:38:24;;;;;;;2.83;1.45;;;;;;;4.19;100.00;101557.84;5035373;28;20028;-75
2021/12/19 07:40:50;;;;;;;2.47;1.27;;;;;;;4.17;100.00;101554.28;5034212;28;20531;-75
2021/12/19 07:43:17;;;;;;;3.30;0.95;;;;;;;4.25;100.00;101547.38;5034109;28;20104;-75
2021/12/19 07:45:43;;;;;;;2.92;0.93;;;;;;;4.20;100.00;101543.75;5035385;28;20032;-75
2021/12/19 07:48:09;;;;;;;2.20;1.10;;;;;;;4.24;100.00;101545.56;5033960;28;20488;-75
2021/12/19 07:50:35;;;;;;;2.45;1.05;;;;;;;4.25;100.00;101548.22;5035348;28;20124;-75
2021/12/19 07:53:01;;;;;;;3.65;1.27;;;;;;;4.23;100.00;101546.44;5035153;28;20543;-75
2021/12/19 07:55:27;;;;;;;2.28;1.13;;;;;;;4.24;100.00;101543.81;5033931;28;20112;-75
2021/12/19 07:57:52;;;;;;;4.45;1.20;;;;;;;4.24;100.00;101535.00;5035417;28;20053;-75
2021/12/19 08:00:20;;;;;;;2.42;0.95;;;;;;;4.24;100.00;101529.72;5036138;28;20037;-75
2021/12/19 08:02:46;;;;;;;2.92;1.00;;;;;;;4.26;100.00;101538.56;5035019;28;20478;-75
2021/12/19 08:05:13;;;;;;;4.15;1.20;;;;;;;4.24;100.00;101530.59;5035436;28;20056;-75
2021/12/19 08:07:40;;;;;;;1.92;0.90;;;;;;;4.29;100.00;101522.75;5034074;28;20079;-75
2021/12/19 08:12:35;;;;;;;2.58;1.08;;;;;;;4.33;100.00;101529.84;5035092;28;20026;-75
2021/12/19 08:15:01;;;;;;;3.05;1.17;;;;;;;4.33;100.00;101529.84;5033478;28;20401;-75
2021/12/19 08:17:26;;;;;;;3.22;1.33;;;;;;;4.39;100.00;101533.47;5033363;28;20385;-75
2021/12/19 08:19:52;;;;;;;2.88;1.50;;;;;;;4.30;100.00;101508.66;5034515;28;20033;-75
2021/12/19 08:22:18;;;;;;;4.15;1.75;;;;;;;4.28;100.00;101526.25;5034622;28;20028;-75
2021/12/19 08:24:45;;;;;;;4.18;2.15;;;;;;;4.27;100.00;101513.91;5034787;28;20379;-75
2021/12/19 08:27:11;;;;;;;6.18;2.22;;;;;;;4.29;100.00;101514.81;5034552;28;20108;-75
2021/12/19 08:29:36;;;;;;;4.38;2.30;;;;;;;4.33;100.00;101505.19;5034675;28;20076;-76
2021/12/19 08:32:02;;;;;;;4.63;2.30;;;;;;;4.30;100.00;101506.03;5034320;28;20524;-75
2021/12/19 08:34:28;;;;;;;6.60;2.53;;;;;;;4.30;100.00;101503.38;5034815;28;20036;-75
2021/12/19 08:36:54;;;;;;;4.72;2.63;;;;;;;4.54;100.00;101495.78;5035165;28;20386;-75
2021/12/19 08:39:20;;;;;;;6.10;2.53;;;;;;;4.40;100.00;101503.50;5036099;28;20029;-75
2021/12/19 08:41:45;;;;;;;5.20;2.72;;;;;;;4.34;100.00;101499.91;5034282;28;20014;-75
2021/12/19 08:44:10;;;;;;;4.32;2.05;;;;;;;4.34;100.00;101505.19;5032949;28;20475;-75
2021/12/19 08:46:37;;;;;;;4.85;2.58;;;;;;;4.40;100.00;101503.50;5034198;28;20446;-75
2021/12/19 08:49:04;;;;;;;5.00;2.58;;;;;;;4.29;100.00;101504.22;5034025;28;20033;-75
2021/12/19 08:51:31;;;;;;;4.20;2.22;;;;;;;4.27;100.00;101513.00;5033946;28;20025;-75
2021/12/19 08:53:57;;;;;;;5.15;2.30;;;;;;;4.42;100.00;101493.84;5033994;28;20026;-75
2021/12/19 08:56:22;;;;;;;4.45;2.40;;;;;;;4.33;100.00;101495.47;5033638;28;20092;-75
2021/12/19 08:58:48;;;;;;;4.75;2.63;;;;;;;4.32;100.00;101485.78;5033822;28;20064;-75
2021/12/19 09:01:13;;;;;;;5.28;2.50;;;;;;;4.31;100.00;101494.56;5033921;28;20025;-75
2021/12/19 09:03:38;;;;;;;7.53;3.05;;;;;;;4.39;100.00;101499.97;5033808;28;20025;-75
2021/12/19 09:06:04;;;;;;;5.75;2.88;;;;;;;4.37;100.00;101504.34;5033812;28;20029;-75
2021/12/19 09:08:29;;;;;;;8.43;3.15;;;;;;;4.36;100.00;101502.56;5033980;28;20033;-75
2021/12/19 09:10:55;;;;;;;6.38;3.25;;;;;;;4.36;100.00;101500.81;5034015;28;20025;-75
2021/12/19 09:13:21;;;;;;;8.88;3.42;;;;;;;4.43;100.00;101493.00;5033691;28;20021;-76
2021/12/19 09:15:47;;;;;;;7.07;3.85;;;;;;;4.35;100.00;101485.84;5042988;28;20025;-75
2021/12/19 09:18:12;;;;;;;10.23;3.28;;;;;;;4.44;100.00;101486.81;5037449;28;20029;-75
2021/12/19 09:20:38;;;;;;;6.20;3.53;;;;;;;4.37;100.00;101483.19;5033489;28;20474;-76
2021/12/19 09:23:04;;;;;;;9.27;3.88;;;;;;;4.40;100.00;101482.34;5033733;28;20025;-75
2021/12/19 09:25:29;;;;;;;10.32;4.07;;;;;;;4.50;100.00;101478.97;5033771;28;20021;-75
2021/12/19 09:27:54;;;;;;;10.27;4.47;;;;;;;4.58;100.00;101476.44;5033461;28;20021;-75
2021/12/19 09:30:20;;;;;;;11.52;5.03;;;;;;;4.47;100.00;101484.22;5033320;28;20036;-75
2021/12/19 09:32:45;;;;;;;12.25;5.43;;;;;;;4.50;100.00;101484.28;5033345;28;20026;-75
2021/12/19 09:35:11;;;;;;;14.38;5.57;;;;;;;4.45;100.00;101484.22;5033403;28;20501;-75
2021/12/19 09:37:36;;;;;;;12.60;5.45;;;;;;;4.60;100.00;101479.09;5033553;28;20026;-75
2021/12/19 09:40:07;;;;;;;14.48;5.88;;;;;;;4.47;100.00;101484.22;5033242;28;20030;-75
2021/12/19 09:42:35;;;;;;;12.70;5.80;;;;;;;4.49;100.00;101487.78;5033245;28;20105;-75
2021/12/19 09:45:02;;;;;;;12.68;5.45;;;;;;;4.52;100.00;101490.47;5033309;28;20033;-75
2021/12/19 09:47:28;;;;;;;15.55;5.80;;;;;;;4.51;100.00;101483.38;5033566;28;20030;-75
2021/12/19 09:49:54;;;;;;;11.65;5.55;;;;;;;4.50;100.00;101473.69;5033238;28;20048;-75
2021/12/19 09:52:20;;;;;;;13.05;5.65;;;;;;;4.56;100.00;101479.06;5031999;28;20025;-75
2021/12/19 09:54:45;;;;;;;12.90;5.82;;;;;;;4.58;100.00;101476.44;5036819;28;20070;-75
2021/12/19 09:57:10;;;;;;;13.88;5.85;;;;;;;4.58;100.00;101482.63;5035025;28;20037;-75
2021/12/19 09:59:36;;;;;;;13.48;5.78;;;;;;;4.58;100.00;101477.34;5034242;28;20040;-75
2021/12/19 10:02:01;;;;;;;14.00;6.13;;;;;;;4.62;100.00;101477.38;5033127;28;20026;-75
2021/12/19 10:04:33;;;;;;;13.32;5.80;;;;;;;4.63;100.00;101473.88;5033398;28;20067;-75
2021/12/19 10:07:04;;;;;;;14.90;5.22;;;;;;;4.64;100.00;101470.38;5033131;28;20021;-75
2021/12/19 10:09:29;;;;;;;13.20;5.53;;;;;;;4.68;100.00;101466.88;5035994;28;20052;-75
2021/12/19 10:12:10;;;;;;;13.07;5.88;;;;;;;4.72;100.00;101462.50;5037098;28;20112;-75
2021/12/19 10:14:36;;;;;;;12.23;6.03;;;;;;;4.71;100.00;101472.22;5037237;28;20068;-75
2021/12/19 10:17:05;;;;;;;15.10;5.70;;;;;;;4.72;100.00;101467.78;5037438;28;20029;-75
2021/12/19 10:19:45;;;;;;;16.35;6.15;;;;;;;4.74;100.00;101461.66;5035960;28;20113;-75
2021/12/19 10:22:35;;;;;;;14.07;6.65;;;;;;;4.74;100.00;101466.09;5037205;28;20040;-75
2021/12/19 10:25:07;;;;;;;15.77;5.90;;;;;;;4.71;100.00;101455.44;5037347;28;20052;-75
2021/12/19 10:27:32;;;;;;;11.48;5.70;;;;;;;4.71;100.00;101461.63;5037004;28;20109;-75
2021/12/19 10:29:58;;;;;;;12.00;5.47;;;;;;;4.68;100.00;101454.53;5036814;28;20100;-75
2021/12/19 10:32:23;;;;;;;12.55;5.72;;;;;;;4.74;100.00;101445.78;5039488;28;20036;-75
2021/12/19 10:34:48;;;;;;;16.83;7.20;;;;;;;4.61;100.00;101446.50;5038327;28;20021;-75
2021/12/19 10:37:31;;;;;;;21.58;7.18;;;;;;;4.61;100.00;101446.50;5036947;28;20071;-75
2021/12/19 10:40:01;;;;;;;15.38;6.65;;;;;;;4.63;100.00;101428.88;5037365;28;20057;-75
2021/12/19 10:42:27;;;;;;;19.17;7.43;;;;;;;4.64;100.00;101425.38;5037142;28;20060;-75
2021/12/19 10:47:37;;;;;;;;;;;;;;;4.64;100.00;101412.16;5037093;28;20039;-75
2021/12/19 10:50:03;;;;;;;17.65;6.65;;;;;;;4.64;100.00;101401.56;5036502;28;20008;-75
2021/12/19 10:52:38;;;;;;;14.40;5.82;;;;;;;4.64;100.00;101391.84;5036319;28;20379;-75
2021/12/19 10:55:09;;;;;;;15.88;6.65;;;;;;;4.68;100.00;101395.44;5036614;28;20490;-75
2021/12/19 10:57:38;;;;;;;12.30;4.47;;;;;;;4.68;100.00;101393.69;5035130;28;20057;-75
2021/12/19 11:00:09;;;;;;;11.93;5.32;;;;;;;4.72;100.00;101381.38;5036155;28;20025;-75
2021/12/19 11:02:40;;;;;;;12.05;4.80;;;;;;;4.78;100.00;101381.44;5036209;28;20057;-75
2021/12/19 11:05:27;;;;;;;10.95;4.18;;;;;;;4.77;100.00;101376.13;5036496;28;20017;-75
2021/12/19 11:08:02;;;;;;;9.40;4.13;;;;;;;4.79;100.00;101369.13;5036223;28;20101;-75
2021/12/19 11:10:30;;;;;;;10.77;4.38;;;;;;;4.81;100.00;101367.38;5038014;28;20021;-75
2021/12/19 11:13:10;;;;;;;15.30;4.75;;;;;;;4.80;100.00;101371.78;5038152;28;20025;-75
2021/12/19 11:15:36;;;;;;;16.27;4.80;;;;;;;4.79;100.00;101362.03;5036747;28;20416;-75
2021/12/19 11:18:02;;;;;;;12.95;5.75;;;;;;;4.80;100.00;101361.19;5034755;28;20028;-75
2021/12/19 11:20:28;;;;;;;12.38;5.40;;;;;;;4.82;100.00;101350.59;5035513;28;20071;-75
2021/12/19 11:22:54;;;;;;;12.27;5.40;;;;;;;4.80;100.00;101345.31;5035879;28;20021;-75
2021/12/19 11:25:20;;;;;;;15.25;6.18;;;;;;;4.80;100.00;101347.94;5036405;28;20100;-75
2021/12/19 11:27:46;;;;;;;12.95;5.45;;;;;;;4.80;100.00;101340.00;5036015;28;20067;-75
2021/12/19 11:30:14;;;;;;;16.30;6.13;;;;;;;4.88;100.00;101344.50;5035760;28;20374;-75
2021/12/19 11:32:58;;;;;;;14.15;5.53;;;;;;;4.82;100.00;101347.94;5034564;28;20084;-75
2021/12/19 11:35:28;;;;;;;14.02;4.95;;;;;;;4.87;100.00;101342.75;5035599;28;20025;-75
2021/12/19 11:37:58;;;;;;;13.27;5.07;;;;;;;4.86;100.00;101333.00;5036006;28;20045;-75
2021/12/19 11:40:26;;;;;;;11.35;4.97;;;;;;;4.92;100.00;101333.94;5035491;28;20559;-75
2021/12/19 11:43:02;;;;;;;12.48;5.13;;;;;;;4.91;100.00;101321.59;5035802;28;20108;-75
2021/12/19 11:48:09;;;;;;;15.93;5.20;;;;;;;4.88;100.00;101323.31;5038477;28;20029;-75
2021/12/19 11:50:44;;;;;;;11.50;4.30;;;;;;;4.88;100.00;101321.56;5035042;28;20030;-75
2021/12/19 11:53:10;;;;;;;8.55;4.47;;;;;;;4.85;100.00;101310.06;5036212;28;20040;-75
2021/12/19 11:55:40;;;;;;;8.17;3.60;;;;;;;4.87;100.00;101293.31;5035246;28;20470;-75
2021/12/19 11:58:08;;;;;;;10.88;4.40;;;;;;;4.89;100.00;101302.19;5035265;28;20294;-75
2021/12/19 12:01:02;;;;;;;10.07;4.28;;;;;;;4.90;100.00;101295.09;5084906;22;20056;-83
2021/12/19 12:03:58;;;;;;;9.43;4.68;;;;;;;4.91;100.00;101296.88;5042076;28;20028;-83
2021/12/19 12:06:33;;;;;;;14.07;3.97;;;;;;;4.90;100.00;101308.34;5053013;28;20033;-83
2021/12/19 12:09:23;;;;;;;9.48;3.75;;;;;;;4.94;100.00;101294.28;5043866;28;20045;-83
2021/12/19 12:12:03;;;;;;;10.85;3.53;;;;;;;4.95;100.00;101296.03;5044430;28;20040;-84
2021/12/19 12:14:55;;;;;;;8.05;3.60;;;;;;;4.97;100.00;101294.31;5044054;28;20040;-83
2021/12/19 12:17:38;;;;;;;10.35;3.65;;;;;;;4.98;100.00;101287.25;5046889;28;20027;-83
2021/12/19 12:20:20;;;;;;;8.00;3.15;;;;;;;4.99;100.00;101281.09;5048280;28;20044;-83
2021/12/19 12:22:55;;;;;;;8.32;2.80;;;;;;;4.99;100.00;101286.38;5046705;28;20478;-84